Aviation Digital Data Service (ADDS)

Output produced by METARs form (2116 UTC 08 August 2020)
found at http://www.aviationweather.gov/metar/data/
 
METAR text: RJOS 082100Z 34003KT 9999 FEW030 BKN/// 26/23 Q1010
Conditions at: RJOS (TOKUSHIMA(JMSDF/, JP) observed 2100 UTC 08 August 2020
Temperature: 26.0°C (79°F)
Dewpoint: 23.0°C (73°F) [RH = 84%]
Pressure (altimeter): 29.82 inches Hg (1010.0 mb)
Winds: from the NNW (340 degrees) at 3 MPH (3 knots; 1.5 m/s)
Visibility: 6 or more miles (10+ km)
Ceiling: at least 12,000 feet AGL
Clouds: few clouds at 3000 feet AGL
Weather: no significant weather observed at this time

METAR text: RJOS 082000Z 31003KT 9999 FEW030 SCT/// 26/23 Q1010
Conditions at: RJOS (TOKUSHIMA(JMSDF/, JP) observed 2000 UTC 08 August 2020
Temperature: 26.0°C (79°F)
Dewpoint: 23.0°C (73°F) [RH = 84%]
Pressure (altimeter): 29.82 inches Hg (1010.0 mb)
Winds: from the NW (310 degrees) at 3 MPH (3 knots; 1.5 m/s)
Visibility: 6 or more miles (10+ km)
Ceiling: at least 12,000 feet AGL
Clouds: few clouds at 3000 feet AGL
Weather: no significant weather observed at this time

METAR text: RJOS 081900Z VRB01KT 9999 FEW030 SCT/// 26/24 Q1009
Conditions at: RJOS (TOKUSHIMA(JMSDF/, JP) observed 1900 UTC 08 August 2020
Temperature: 26.0°C (79°F)
Dewpoint: 24.0°C (75°F) [RH = 89%]
Pressure (altimeter): 29.79 inches Hg (1009.0 mb)
Winds: variable direction winds at 1 MPH (1 knots; 0.5 m/s)
Visibility: 6 or more miles (10+ km)
Ceiling: at least 12,000 feet AGL
Clouds: few clouds at 3000 feet AGL
Weather: no significant weather observed at this time

METAR text: RJOS 081800Z 20005KT 170V250 9999 FEW030 27/23 Q1009
Conditions at: RJOS (TOKUSHIMA(JMSDF/, JP) observed 1800 UTC 08 August 2020
Temperature: 27.0°C (81°F)
Dewpoint: 23.0°C (73°F) [RH = 79%]
Pressure (altimeter): 29.79 inches Hg (1009.0 mb)
Winds: from the SSW (200 degrees) at 6 MPH (5 knots; 2.6 m/s)
Visibility: 6 or more miles (10+ km)
Ceiling: at least 12,000 feet AGL
Clouds: few clouds at 3000 feet AGL
Weather: no significant weather observed at this time

METAR text: RJOS 081700Z 19007KT 150V220 9999 FEW030 SCT100 27/24 Q1009
Conditions at: RJOS (TOKUSHIMA(JMSDF/, JP) observed 1700 UTC 08 August 2020
Temperature: 27.0°C (81°F)
Dewpoint: 24.0°C (75°F) [RH = 84%]
Pressure (altimeter): 29.79 inches Hg (1009.0 mb)
Winds: from the S (190 degrees) at 8 MPH (7 knots; 3.6 m/s)
Visibility: 6 or more miles (10+ km)
Ceiling: at least 12,000 feet AGL
Clouds: few clouds at 3000 feet AGL
scattered clouds at 10000 feet AGL
Weather: no significant weather observed at this time

METAR text: RJOS 081600Z 18013KT 9999 FEW030 BKN100 27/24 Q1009
Conditions at: RJOS (TOKUSHIMA(JMSDF/, JP) observed 1600 UTC 08 August 2020
Temperature: 27.0°C (81°F)
Dewpoint: 24.0°C (75°F) [RH = 84%]
Pressure (altimeter): 29.79 inches Hg (1009.0 mb)
Winds: from the S (180 degrees) at 15 MPH (13 knots; 6.7 m/s)
Visibility: 6 or more miles (10+ km)
Ceiling: 10000 feet AGL
Clouds: few clouds at 3000 feet AGL
broken clouds at 10000 feet AGL
Weather: no significant weather observed at this time

METAR text: RJOS 081500Z 18016KT 9999 FEW030 BKN100 27/24 Q1009
Conditions at: RJOS (TOKUSHIMA(JMSDF/, JP) observed 1500 UTC 08 August 2020
Temperature: 27.0°C (81°F)
Dewpoint: 24.0°C (75°F) [RH = 84%]
Pressure (altimeter): 29.79 inches Hg (1009.0 mb)
Winds: from the S (180 degrees) at 18 MPH (16 knots; 8.2 m/s)
Visibility: 6 or more miles (10+ km)
Ceiling: 10000 feet AGL
Clouds: few clouds at 3000 feet AGL
broken clouds at 10000 feet AGL
Weather: no significant weather observed at this time

METAR text: RJOS 081400Z 17015KT 9999 FEW030 SCT100 28/23 Q1009
Conditions at: RJOS (TOKUSHIMA(JMSDF/, JP) observed 1400 UTC 08 August 2020
Temperature: 28.0°C (82°F)
Dewpoint: 23.0°C (73°F) [RH = 74%]
Pressure (altimeter): 29.79 inches Hg (1009.0 mb)
Winds: from the S (170 degrees) at 17 MPH (15 knots; 7.7 m/s)
Visibility: 6 or more miles (10+ km)
Ceiling: at least 12,000 feet AGL
Clouds: few clouds at 3000 feet AGL
scattered clouds at 10000 feet AGL
Weather: no significant weather observed at this time

METAR text: RJOS 081300Z 19014KT 9999 FEW030 SCT/// 29/23 Q1009
Conditions at: RJOS (TOKUSHIMA(JMSDF/, JP) observed 1300 UTC 08 August 2020
Temperature: 29.0°C (84°F)
Dewpoint: 23.0°C (73°F) [RH = 70%]
Pressure (altimeter): 29.79 inches Hg (1009.0 mb)
Winds: from the S (190 degrees) at 16 MPH (14 knots; 7.2 m/s)
Visibility: 6 or more miles (10+ km)
Ceiling: at least 12,000 feet AGL
Clouds: few clouds at 3000 feet AGL
Weather: no significant weather observed at this time

METAR text: RJOS 081200Z 19016KT 9999 FEW030 BKN/// 29/23 Q1009
Conditions at: RJOS (TOKUSHIMA(JMSDF/, JP) observed 1200 UTC 08 August 2020
Temperature: 29.0°C (84°F)
Dewpoint: 23.0°C (73°F) [RH = 70%]
Pressure (altimeter): 29.79 inches Hg (1009.0 mb)
Winds: from the S (190 degrees) at 18 MPH (16 knots; 8.2 m/s)
Visibility: 6 or more miles (10+ km)
Ceiling: at least 12,000 feet AGL
Clouds: few clouds at 3000 feet AGL
Weather: no significant weather observed at this time

METAR text: RJOS 081100Z 19011KT 9999 FEW030 BKN/// 29/24 Q1008
Conditions at: RJOS (TOKUSHIMA(JMSDF/, JP) observed 1100 UTC 08 August 2020
Temperature: 29.0°C (84°F)
Dewpoint: 24.0°C (75°F) [RH = 74%]
Pressure (altimeter): 29.76 inches Hg (1008.0 mb)
Winds: from the S (190 degrees) at 13 MPH (11 knots; 5.7 m/s)
Visibility: 6 or more miles (10+ km)
Ceiling: at least 12,000 feet AGL
Clouds: few clouds at 3000 feet AGL
Weather: no significant weather observed at this time

METAR text: RJOS 081000Z 19012KT 9999 FEW030 BKN/// 29/25 Q1007
Conditions at: RJOS (TOKUSHIMA(JMSDF/, JP) observed 1000 UTC 08 August 2020
Temperature: 29.0°C (84°F)
Dewpoint: 25.0°C (77°F) [RH = 79%]
Pressure (altimeter): 29.73 inches Hg (1007.0 mb)
Winds: from the S (190 degrees) at 14 MPH (12 knots; 6.2 m/s)
Visibility: 6 or more miles (10+ km)
Ceiling: at least 12,000 feet AGL
Clouds: few clouds at 3000 feet AGL
Weather: no significant weather observed at this time

METAR text: RJOS 080900Z 16013KT 9999 FEW030 BKN/// 28/25 Q1007
Conditions at: RJOS (TOKUSHIMA(JMSDF/, JP) observed 0900 UTC 08 August 2020
Temperature: 28.0°C (82°F)
Dewpoint: 25.0°C (77°F) [RH = 84%]
Pressure (altimeter): 29.73 inches Hg (1007.0 mb)
Winds: from the SSE (160 degrees) at 15 MPH (13 knots; 6.7 m/s)
Visibility: 6 or more miles (10+ km)
Ceiling: at least 12,000 feet AGL
Clouds: few clouds at 3000 feet AGL
Weather: no significant weather observed at this time

METAR text: RJOS 080800Z 15014KT 9999 FEW030 BKN/// 29/25 Q1007
Conditions at: RJOS (TOKUSHIMA(JMSDF/, JP) observed 0800 UTC 08 August 2020
Temperature: 29.0°C (84°F)
Dewpoint: 25.0°C (77°F) [RH = 79%]
Pressure (altimeter): 29.73 inches Hg (1007.0 mb)
Winds: from the SSE (150 degrees) at 16 MPH (14 knots; 7.2 m/s)
Visibility: 6 or more miles (10+ km)
Ceiling: at least 12,000 feet AGL
Clouds: few clouds at 3000 feet AGL
Weather: no significant weather observed at this time

METAR text: RJOS 080700Z 15015KT 9999 FEW030 SCT060 BKN/// 30/25 Q1007
Conditions at: RJOS (TOKUSHIMA(JMSDF/, JP) observed 0700 UTC 08 August 2020
Temperature: 30.0°C (86°F)
Dewpoint: 25.0°C (77°F) [RH = 75%]
Pressure (altimeter): 29.73 inches Hg (1007.0 mb)
Winds: from the SSE (150 degrees) at 17 MPH (15 knots; 7.7 m/s)
Visibility: 6 or more miles (10+ km)
Ceiling: at least 12,000 feet AGL
Clouds: few clouds at 3000 feet AGL
scattered clouds at 6000 feet AGL
Weather: no significant weather observed at this time

METAR text: RJOS 080600Z 13014KT 9999 FEW030 BKN/// 30/25 Q1007
Conditions at: RJOS (TOKUSHIMA(JMSDF/, JP) observed 0600 UTC 08 August 2020
Temperature: 30.0°C (86°F)
Dewpoint: 25.0°C (77°F) [RH = 75%]
Pressure (altimeter): 29.73 inches Hg (1007.0 mb)
Winds: from the SE (130 degrees) at 16 MPH (14 knots; 7.2 m/s)
Visibility: 6 or more miles (10+ km)
Ceiling: at least 12,000 feet AGL
Clouds: few clouds at 3000 feet AGL
Weather: no significant weather observed at this time

METAR text: RJOS 080500Z 12011KT 9999 FEW030 BKN/// 30/25 Q1007
Conditions at: RJOS (TOKUSHIMA(JMSDF/, JP) observed 0500 UTC 08 August 2020
Temperature: 30.0°C (86°F)
Dewpoint: 25.0°C (77°F) [RH = 75%]
Pressure (altimeter): 29.73 inches Hg (1007.0 mb)
Winds: from the ESE (120 degrees) at 13 MPH (11 knots; 5.7 m/s)
Visibility: 6 or more miles (10+ km)
Ceiling: at least 12,000 feet AGL
Clouds: few clouds at 3000 feet AGL
Weather: no significant weather observed at this time

METAR text: RJOS 080400Z 10007KT 070V130 9999 FEW030 BKN/// 31/25 Q1008
Conditions at: RJOS (TOKUSHIMA(JMSDF/, JP) observed 0400 UTC 08 August 2020
Temperature: 31.0°C (88°F)
Dewpoint: 25.0°C (77°F) [RH = 71%]
Pressure (altimeter): 29.76 inches Hg (1008.0 mb)
Winds: from the E (100 degrees) at 8 MPH (7 knots; 3.6 m/s)
Visibility: 6 or more miles (10+ km)
Ceiling: at least 12,000 feet AGL
Clouds: few clouds at 3000 feet AGL
Weather: no significant weather observed at this time

METAR text: RJOS 080300Z 09009KT 9999 FEW030 BKN/// 30/24 Q1008
Conditions at: RJOS (TOKUSHIMA(JMSDF/, JP) observed 0300 UTC 08 August 2020
Temperature: 30.0°C (86°F)
Dewpoint: 24.0°C (75°F) [RH = 70%]
Pressure (altimeter): 29.76 inches Hg (1008.0 mb)
Winds: from the E (90 degrees) at 10 MPH (9 knots; 4.6 m/s)
Visibility: 6 or more miles (10+ km)
Ceiling: at least 12,000 feet AGL
Clouds: few clouds at 3000 feet AGL
Weather: no significant weather observed at this time

METAR text: RJOS 080200Z 11010KT 9000 FEW030 BKN/// 30/25 Q1009
Conditions at: RJOS (TOKUSHIMA(JMSDF/, JP) observed 0200 UTC 08 August 2020
Temperature: 30.0°C (86°F)
Dewpoint: 25.0°C (77°F) [RH = 75%]
Pressure (altimeter): 29.79 inches Hg (1009.0 mb)
Winds: from the ESE (110 degrees) at 12 MPH (10 knots; 5.1 m/s)
Visibility: 6 miles ( 9 km)
Ceiling: at least 12,000 feet AGL
Clouds: few clouds at 3000 feet AGL
Weather: no significant weather observed at this time

METAR text: RJOS 080100Z 10006KT 8000 FEW030 BKN/// 29/24 Q1009
Conditions at: RJOS (TOKUSHIMA(JMSDF/, JP) observed 0100 UTC 08 August 2020
Temperature: 29.0°C (84°F)
Dewpoint: 24.0°C (75°F) [RH = 74%]
Pressure (altimeter): 29.79 inches Hg (1009.0 mb)
Winds: from the E (100 degrees) at 7 MPH (6 knots; 3.1 m/s)
Visibility: 5 miles ( 8 km)
Ceiling: at least 12,000 feet AGL
Clouds: few clouds at 3000 feet AGL
Weather: no significant weather observed at this time

METAR text: RJOS 080000Z 19003KT 160V230 6000 FEW030 BKN/// 27/24 Q1009
Conditions at: RJOS (TOKUSHIMA(JMSDF/, JP) observed 0000 UTC 08 August 2020
Temperature: 27.0°C (81°F)
Dewpoint: 24.0°C (75°F) [RH = 84%]
Pressure (altimeter): 29.79 inches Hg (1009.0 mb)
Winds: from the S (190 degrees) at 3 MPH (3 knots; 1.5 m/s)
Visibility: 4 miles ( 6 km)
Ceiling: at least 12,000 feet AGL
Clouds: few clouds at 3000 feet AGL
Weather: no significant weather observed at this time

METAR text: RJOS 072322Z VRB01KT 5000 BR FEW004 BKN/// 27/24 Q1009 RMK 2ST004 A2980
Conditions at: RJOS (TOKUSHIMA(JMSDF/, JP) observed 2322 UTC 07 August 2020
Temperature: 27.0°C (81°F)
Dewpoint: 24.0°C (75°F) [RH = 84%]
Pressure (altimeter): 29.79 inches Hg (1009.0 mb)
Winds: variable direction winds at 1 MPH (1 knots; 0.5 m/s)
Visibility: 3 miles ( 5 km)
Ceiling: at least 12,000 feet AGL
Clouds: few clouds at 400 feet AGL
Weather: BR  (mist)

METAR text: RJOS 072300Z 31003KT 4500 BR FEW004 BKN/// 26/24 Q1009
Conditions at: RJOS (TOKUSHIMA(JMSDF/, JP) observed 2300 UTC 07 August 2020
Temperature: 26.0°C (79°F)
Dewpoint: 24.0°C (75°F) [RH = 89%]
Pressure (altimeter): 29.79 inches Hg (1009.0 mb)
Winds: from the NW (310 degrees) at 3 MPH (3 knots; 1.5 m/s)
Visibility: 2.80 miles (4.51 km)
Ceiling: at least 12,000 feet AGL
Clouds: few clouds at 400 feet AGL
Weather: BR  (mist)

METAR text: RJOS 072200Z VRB01KT 4000 BR FEW004 BKN/// 25/24 Q1009
Conditions at: RJOS (TOKUSHIMA(JMSDF/, JP) observed 2200 UTC 07 August 2020
Temperature: 25.0°C (77°F)
Dewpoint: 24.0°C (75°F) [RH = 94%]
Pressure (altimeter): 29.79 inches Hg (1009.0 mb)
Winds: variable direction winds at 1 MPH (1 knots; 0.5 m/s)
Visibility: 2.49 miles (4.01 km)
Ceiling: at least 12,000 feet AGL
Clouds: few clouds at 400 feet AGL
Weather: BR  (mist)

METAR text: RJOS 072100Z 00000KT 4000 BR FEW004 BKN/// 25/24 Q1009
Conditions at: RJOS (TOKUSHIMA(JMSDF/, JP) observed 2100 UTC 07 August 2020
Temperature: 25.0°C (77°F)
Dewpoint: 24.0°C (75°F) [RH = 94%]
Pressure (altimeter): 29.79 inches Hg (1009.0 mb)
Winds: calm
Visibility: 2.49 miles (4.01 km)
Ceiling: at least 12,000 feet AGL
Clouds: few clouds at 400 feet AGL
Weather: BR  (mist)

METAR text: RJOS 072000Z 29003KT 4500 BR FEW004 BKN/// 25/24 Q1008
Conditions at: RJOS (TOKUSHIMA(JMSDF/, JP) observed 2000 UTC 07 August 2020
Temperature: 25.0°C (77°F)
Dewpoint: 24.0°C (75°F) [RH = 94%]
Pressure (altimeter): 29.76 inches Hg (1008.0 mb)
Winds: from the WNW (290 degrees) at 3 MPH (3 knots; 1.5 m/s)
Visibility: 2.80 miles (4.51 km)
Ceiling: at least 12,000 feet AGL
Clouds: few clouds at 400 feet AGL
Weather: BR  (mist)

METAR text: RJOS 071900Z 31003KT 4500 BR FEW004 BKN/// 25/24 Q1008
Conditions at: RJOS (TOKUSHIMA(JMSDF/, JP) observed 1900 UTC 07 August 2020
Temperature: 25.0°C (77°F)
Dewpoint: 24.0°C (75°F) [RH = 94%]
Pressure (altimeter): 29.76 inches Hg (1008.0 mb)
Winds: from the NW (310 degrees) at 3 MPH (3 knots; 1.5 m/s)
Visibility: 2.80 miles (4.51 km)
Ceiling: at least 12,000 feet AGL
Clouds: few clouds at 400 feet AGL
Weather: BR  (mist)

METAR text: RJOS 071800Z VRB02KT 4500 BR FEW004 BKN/// 26/24 Q1008
Conditions at: RJOS (TOKUSHIMA(JMSDF/, JP) observed 1800 UTC 07 August 2020
Temperature: 26.0°C (79°F)
Dewpoint: 24.0°C (75°F) [RH = 89%]
Pressure (altimeter): 29.76 inches Hg (1008.0 mb)
Winds: variable direction winds at 2 MPH (2 knots; 1.0 m/s)
Visibility: 2.80 miles (4.51 km)
Ceiling: at least 12,000 feet AGL
Clouds: few clouds at 400 feet AGL
Weather: BR  (mist)

METAR text: RJOS 071715Z VRB01KT 4900 BR FEW004 BKN/// 26/24 Q1008 RMK 2ST004 A2978
Conditions at: RJOS (TOKUSHIMA(JMSDF/, JP) observed 1715 UTC 07 August 2020
Temperature: 26.0°C (79°F)
Dewpoint: 24.0°C (75°F) [RH = 89%]
Pressure (altimeter): 29.76 inches Hg (1008.0 mb)
Winds: variable direction winds at 1 MPH (1 knots; 0.5 m/s)
Visibility: 3 miles ( 5 km)
Ceiling: at least 12,000 feet AGL
Clouds: few clouds at 400 feet AGL
Weather: BR  (mist)

METAR text: RJOS 071700Z VRB01KT 5000 BR FEW004 BKN/// 26/24 Q1008
Conditions at: RJOS (TOKUSHIMA(JMSDF/, JP) observed 1700 UTC 07 August 2020
Temperature: 26.0°C (79°F)
Dewpoint: 24.0°C (75°F) [RH = 89%]
Pressure (altimeter): 29.76 inches Hg (1008.0 mb)
Winds: variable direction winds at 1 MPH (1 knots; 0.5 m/s)
Visibility: 3 miles ( 5 km)
Ceiling: at least 12,000 feet AGL
Clouds: few clouds at 400 feet AGL
Weather: BR  (mist)

METAR text: RJOS 071600Z VRB01KT 5000 BR FEW004 BKN/// 26/24 Q1009
Conditions at: RJOS (TOKUSHIMA(JMSDF/, JP) observed 1600 UTC 07 August 2020
Temperature: 26.0°C (79°F)
Dewpoint: 24.0°C (75°F) [RH = 89%]
Pressure (altimeter): 29.79 inches Hg (1009.0 mb)
Winds: variable direction winds at 1 MPH (1 knots; 0.5 m/s)
Visibility: 3 miles ( 5 km)
Ceiling: at least 12,000 feet AGL
Clouds: few clouds at 400 feet AGL
Weather: BR  (mist)

METAR text: RJOS 071500Z 19003KT 5000 BR FEW004 BKN/// 26/24 Q1009
Conditions at: RJOS (TOKUSHIMA(JMSDF/, JP) observed 1500 UTC 07 August 2020
Temperature: 26.0°C (79°F)
Dewpoint: 24.0°C (75°F) [RH = 89%]
Pressure (altimeter): 29.79 inches Hg (1009.0 mb)
Winds: from the S (190 degrees) at 3 MPH (3 knots; 1.5 m/s)
Visibility: 3 miles ( 5 km)
Ceiling: at least 12,000 feet AGL
Clouds: few clouds at 400 feet AGL
Weather: BR  (mist)

METAR text: RJOS 071400Z 22003KT 180V280 5000 BR FEW004 BKN/// 26/25 Q1009
Conditions at: RJOS (TOKUSHIMA(JMSDF/, JP) observed 1400 UTC 07 August 2020
Temperature: 26.0°C (79°F)
Dewpoint: 25.0°C (77°F) [RH = 94%]
Pressure (altimeter): 29.79 inches Hg (1009.0 mb)
Winds: from the SW (220 degrees) at 3 MPH (3 knots; 1.5 m/s)
Visibility: 3 miles ( 5 km)
Ceiling: at least 12,000 feet AGL
Clouds: few clouds at 400 feet AGL
Weather: BR  (mist)

METAR text: RJOS 071300Z 19003KT 150V240 5000 BR FEW004 BKN/// 26/26 Q1009
Conditions at: RJOS (TOKUSHIMA(JMSDF/, JP) observed 1300 UTC 07 August 2020
Temperature: 26.0°C (79°F)
Dewpoint: 26.0°C (79°F) [RH = 100%]
Pressure (altimeter): 29.79 inches Hg (1009.0 mb)
Winds: from the S (190 degrees) at 3 MPH (3 knots; 1.5 m/s)
Visibility: 3 miles ( 5 km)
Ceiling: at least 12,000 feet AGL
Clouds: few clouds at 400 feet AGL
Weather: BR  (mist)

METAR text: RJOS 071200Z 10004KT 5000 BR FEW004 BKN/// 27/25 Q1010
Conditions at: RJOS (TOKUSHIMA(JMSDF/, JP) observed 1200 UTC 07 August 2020
Temperature: 27.0°C (81°F)
Dewpoint: 25.0°C (77°F) [RH = 89%]
Pressure (altimeter): 29.82 inches Hg (1010.0 mb)
Winds: from the E (100 degrees) at 5 MPH (4 knots; 2.1 m/s)
Visibility: 3 miles ( 5 km)
Ceiling: at least 12,000 feet AGL
Clouds: few clouds at 400 feet AGL
Weather: BR  (mist)

METAR text: RJOS 071100Z 11006KT 5000 BR FEW004 SCT080 BKN/// 27/26 Q1009
Conditions at: RJOS (TOKUSHIMA(JMSDF/, JP) observed 1100 UTC 07 August 2020
Temperature: 27.0°C (81°F)
Dewpoint: 26.0°C (79°F) [RH = 94%]
Pressure (altimeter): 29.79 inches Hg (1009.0 mb)
Winds: from the ESE (110 degrees) at 7 MPH (6 knots; 3.1 m/s)
Visibility: 3 miles ( 5 km)
Ceiling: at least 12,000 feet AGL
Clouds: few clouds at 400 feet AGL
scattered clouds at 8000 feet AGL
Weather: BR  (mist)

METAR text: RJOS 071000Z 14004KT 9999 FEW012 SCT080 BKN/// 27/25 Q1009
Conditions at: RJOS (TOKUSHIMA(JMSDF/, JP) observed 1000 UTC 07 August 2020
Temperature: 27.0°C (81°F)
Dewpoint: 25.0°C (77°F) [RH = 89%]
Pressure (altimeter): 29.79 inches Hg (1009.0 mb)
Winds: from the SE (140 degrees) at 5 MPH (4 knots; 2.1 m/s)
Visibility: 6 or more miles (10+ km)
Ceiling: at least 12,000 feet AGL
Clouds: few clouds at 1200 feet AGL
scattered clouds at 8000 feet AGL
Weather: no significant weather observed at this time